Time;durP1;ratioP1;P1;durP2;ratioP2;P2;SDS_P1;SDS_P2;PMS_P1;PMS_P2;Temp;Humidity;BMP_temperature;BMP_pressure;BME280_temperature;BME280_humidity;BME280_pressure;Samples;Min_cycle;Max_cycle;Signal;HPM_P1;HPM_P2
2023/01/22 00:02:11;;;;;;;60.48;46.28;;;18.70;92.40;;;;;;1902968;75;21215;-84
2023/01/22 00:04:42;;;;;;;64.17;46.53;;;18.70;92.30;;;;;;1898997;75;21186;-84
2023/01/22 00:07:14;;;;;;;66.82;48.60;;;18.70;92.10;;;;;;1897850;75;21732;-85
2023/01/22 00:09:45;;;;;;;69.27;48.25;;;18.80;92.00;;;;;;1902185;75;21201;-86
2023/01/22 00:12:15;;;;;;;77.55;50.60;;;18.80;91.80;;;;;;1903252;74;22079;-83
2023/01/22 00:14:48;;;;;;;74.85;50.67;;;18.90;91.70;;;;;;1916571;75;21135;-84
2023/01/22 00:17:18;;;;;;;73.20;51.18;;;18.90;91.60;;;;;;1901945;75;21584;-85
2023/01/22 00:19:49;;;;;;;65.60;46.40;;;19.00;91.40;;;;;;1904754;73;21088;-84
2023/01/22 00:22:21;;;;;;;64.75;46.30;;;19.10;91.20;;;;;;1909511;73;21132;-85
2023/01/22 00:24:54;;;;;;;68.00;45.23;;;19.20;91.00;;;;;;1948454;73;21076;-84
2023/01/22 00:27:25;;;;;;;69.62;46.10;;;19.20;90.80;;;;;;1893925;75;21571;-86
2023/01/22 00:29:56;;;;;;;67.58;45.03;;;19.30;90.50;;;;;;1903369;75;21163;-87
2023/01/22 00:32:27;;;;;;;60.12;42.43;;;19.40;90.40;;;;;;1887073;75;21072;-84
2023/01/22 00:34:58;;;;;;;54.53;39.75;;;19.40;90.30;;;;;;1915813;74;21525;-87
2023/01/22 00:37:28;;;;;;;52.88;38.55;;;19.50;90.00;;;;;;1906433;75;21178;-88
2023/01/22 00:39:59;;;;;;;53.33;38.48;;;19.50;89.70;;;;;;1887130;75;21127;-85
2023/01/22 00:42:30;;;;;;;55.40;39.90;;;19.60;89.70;;;;;;1900999;75;21080;-87
2023/01/22 00:45:01;;;;;;;51.33;38.75;;;19.60;89.30;;;;;;1891669;75;21576;-87
2023/01/22 00:47:31;;;;;;;50.70;37.45;;;19.70;89.20;;;;;;1886796;75;21174;-88
2023/01/22 00:50:03;;;;;;;50.33;38.73;;;19.70;88.90;;;;;;1886705;75;21076;-87
2023/01/22 00:52:36;;;;;;;53.50;38.80;;;19.70;89.10;;;;;;1849013;76;21146;-88
2023/01/22 00:55:08;;;;;;;51.13;38.30;;;19.80;88.80;;;;;;1854317;76;21189;-88
2023/01/22 00:57:39;;;;;;;53.65;39.75;;;19.90;88.40;;;;;;1894847;75;21177;-89
2023/01/22 01:00:11;;;;;;;58.95;38.75;;;20.00;88.60;;;;;;1900445;74;21162;-88
2023/01/22 01:05:31;;;;;;;54.20;39.08;;;20.10;88.40;;;;;;1892154;75;21053;-87
2023/01/22 01:08:02;;;;;;;51.05;39.27;;;20.10;88.10;;;;;;1912634;75;21182;-88
2023/01/22 01:10:32;;;;;;;51.85;38.70;;;20.20;87.90;;;;;;1895568;75;21052;-88
2023/01/22 01:13:05;;;;;;;51.83;36.28;;;20.30;87.90;;;;;;1904868;74;21181;-88
2023/01/22 01:15:35;;;;;;;53.52;36.50;;;20.40;87.90;;;;;;1911227;75;21145;-88
2023/01/22 01:18:11;;;;;;;53.15;38.02;;;20.50;87.60;;;;;;1918365;75;21081;-88
2023/01/22 01:20:40;;;;;;;63.48;41.98;;;20.60;87.30;;;;;;1919036;74;21586;-87
2023/01/22 01:23:14;;;;;;;60.78;42.93;;;20.70;86.50;;;;;;1913594;74;21155;-89
2023/01/22 01:25:45;;;;;;;59.18;41.68;;;20.80;86.20;;;;;;1902426;75;21112;-89
2023/01/22 01:28:15;;;;;;;61.68;44.40;;;20.90;85.90;;;;;;1897666;75;21568;-89
2023/01/22 01:30:46;;;;;;;60.48;44.10;;;21.00;85.60;;;;;;1911674;75;21124;-88
2023/01/22 01:33:17;;;;;;;63.28;42.10;;;21.10;85.30;;;;;;1892657;75;21052;-88
2023/01/22 01:35:48;;;;;;;57.45;40.75;;;21.20;85.30;;;;;;1904104;72;21141;-89
2023/01/22 01:38:19;;;;;;;56.77;40.70;;;21.20;85.00;;;;;;1906850;73;21127;-88
2023/01/22 01:40:50;;;;;;;64.22;40.23;;;21.30;84.50;;;;;;1898937;74;21023;-89
2023/01/22 01:43:21;;;;;;;54.08;39.85;;;21.40;84.00;;;;;;1892014;74;21074;-89
2023/01/22 01:45:53;;;;;;;54.63;40.63;;;21.40;83.90;;;;;;1900834;74;21185;-87
2023/01/22 01:48:44;;;;;;;55.08;39.18;;;21.50;83.00;;;;;;1908784;74;21107;-91
2023/01/22 01:51:30;;;;;;;70.85;45.67;;;21.50;83.20;;;;;;1864819;76;21079;-90
2023/01/22 01:54:03;;;;;;;67.22;48.10;;;21.60;83.80;;;;;;1862887;76;21164;-88
2023/01/22 01:56:39;;;;;;;68.22;50.50;;;21.70;84.10;;;;;;1896035;73;21077;-88
2023/01/22 01:59:13;;;;;;;67.30;51.35;;;21.70;84.10;;;;;;1901922;74;21182;-88
2023/01/22 02:01:46;;;;;;;77.25;53.38;;;21.80;84.30;;;;;;1916838;73;21205;-89
2023/01/22 02:04:17;;;;;;;71.02;51.05;;;21.90;85.40;;;;;;1901382;74;21045;-70
2023/01/22 02:06:49;;;;;;;72.90;53.48;;;21.90;84.40;;;;;;1906732;73;21533;-69
2023/01/22 02:09:21;;;;;;;76.50;53.23;;;22.00;84.60;;;;;;1900378;73;21139;-69
2023/01/22 02:11:53;;;;;;;84.45;59.10;;;22.00;84.50;;;;;;1895848;75;21147;-71
2023/01/22 02:14:32;;;;;;;89.55;62.83;;;22.10;84.80;;;;;;1898278;72;21174;-71
2023/01/22 02:17:14;;;;;;;86.40;61.77;;;22.10;85.60;;;;;;1903856;73;21167;-70
2023/01/22 02:19:45;;;;;;;77.42;55.48;;;22.20;85.40;;;;;;1910009;74;21045;-70
2023/01/22 02:22:21;;;;;;;73.28;52.30;;;22.30;85.00;;;;;;1909701;74;21128;-71
2023/01/22 02:24:52;;;;;;;64.37;46.68;;;22.30;84.60;;;;;;1901195;72;21150;-71
2023/01/22 02:27:23;;;;;;;60.12;42.50;;;22.30;84.50;;;;;;1905987;73;21139;-71
2023/01/22 02:30:00;;;;;;;55.63;39.40;;;22.40;84.40;;;;;;1909099;72;21616;-71
2023/01/22 02:32:31;;;;;;;53.98;38.58;;;22.50;83.90;;;;;;1909291;74;21170;-70
2023/01/22 02:35:03;;;;;;;53.20;39.42;;;22.50;83.10;;;;;;1900960;72;21212;-71
2023/01/22 02:37:35;;;;;;;53.20;39.48;;;22.60;83.00;;;;;;1900045;72;21051;-71
2023/01/22 02:40:07;;;;;;;52.33;38.13;;;22.70;82.90;;;;;;1937319;73;21154;-70
2023/01/22 02:42:38;;;;;;;52.83;39.42;;;22.70;82.60;;;;;;1930753;72;21738;-72
2023/01/22 02:45:12;;;;;;;54.85;39.30;;;22.80;82.60;;;;;;1938570;73;21127;-70
2023/01/22 02:47:43;;;;;;;57.00;39.50;;;22.80;82.40;;;;;;1900098;75;21530;-70
2023/01/22 02:50:14;;;;;;;58.55;41.23;;;22.90;82.10;;;;;;1943159;73;21935;-71
2023/01/22 02:52:46;;;;;;;52.45;38.88;;;23.00;82.00;;;;;;1946028;72;21100;-71
2023/01/22 02:55:17;;;;;;;53.63;39.90;;;23.10;81.80;;;;;;1947674;72;21131;-72
2023/01/22 02:57:48;;;;;;;53.17;36.93;;;23.20;81.60;;;;;;1895238;75;21661;-70
2023/01/22 03:00:19;;;;;;;52.33;38.30;;;23.20;81.30;;;;;;1923203;73;21173;-71
2023/01/22 03:02:51;;;;;;;64.65;43.38;;;23.30;81.10;;;;;;1930747;73;21157;-72
2023/01/22 03:05:22;;;;;;;58.42;41.90;;;23.30;81.60;;;;;;1934786;73;21603;-72
2023/01/22 03:07:53;;;;;;;48.17;34.60;;;23.40;81.50;;;;;;1890598;75;21135;-73
2023/01/22 03:10:24;;;;;;;50.67;37.35;;;23.40;80.80;;;;;;1929159;73;21108;-71
2023/01/22 03:21:21;;;;;;;60.45;42.83;;;23.80;80.20;;;;;;1932509;72;21167;-72
2023/01/22 03:23:55;;;;;;;56.05;39.90;;;23.90;80.10;;;;;;1896725;75;21163;-72
2023/01/22 03:26:27;;;;;;;50.83;36.60;;;24.00;79.70;;;;;;1935557;73;22299;-72
2023/01/22 03:28:58;;;;;;;54.73;38.83;;;24.10;79.10;;;;;;1934661;73;21123;-73
2023/01/22 03:31:29;;;;;;;53.58;38.15;;;24.20;79.00;;;;;;1933094;73;21115;-71
2023/01/22 03:34:00;;;;;;;54.95;39.10;;;24.30;78.70;;;;;;1884320;75;21172;-72
2023/01/22 03:36:32;;;;;;;47.58;36.95;;;24.40;78.80;;;;;;1929334;73;21810;-72
2023/01/22 03:39:03;;;;;;;42.38;33.08;;;24.50;77.60;;;;;;1890568;75;21780;-72
2023/01/22 03:41:34;;;;;;;45.43;34.05;;;24.60;75.40;;;;;;1923902;73;21120;-72
2023/01/22 03:44:08;;;;;;;43.65;30.82;;;24.70;75.20;;;;;;1923585;73;21125;-72
2023/01/22 03:46:39;;;;;;;40.85;28.55;;;24.80;74.70;;;;;;1887665;75;21198;-71
2023/01/22 03:49:11;;;;;;;34.63;27.02;;;24.90;72.40;;;;;;1919382;74;21096;-72
2023/01/22 03:51:43;;;;;;;31.23;24.05;;;25.10;71.20;;;;;;1886913;74;21108;-72
2023/01/22 03:54:15;;;;;;;28.10;22.45;;;25.20;70.10;;;;;;1926593;74;21131;-72
2023/01/22 03:56:47;;;;;;;30.72;21.82;;;25.30;66.80;;;;;;1887447;75;21097;-72
2023/01/22 03:59:18;;;;;;;29.50;23.10;;;25.40;66.20;;;;;;1919864;74;21146;-72
2023/01/22 04:01:49;;;;;;;28.30;20.37;;;25.50;65.40;;;;;;1882702;75;21116;-72
2023/01/22 04:04:20;;;;;;;25.72;20.10;;;25.60;62.50;;;;;;1933695;74;21163;-71
2023/01/22 04:06:51;;;;;;;25.57;19.85;;;25.70;62.10;;;;;;1881480;75;21144;-70
2023/01/22 04:09:22;;;;;;;28.67;20.82;;;25.80;63.40;;;;;;1929937;74;21617;-71
2023/01/22 04:11:53;;;;;;;27.67;18.98;;;25.90;62.30;;;;;;1891088;75;21194;-70
2023/01/22 04:14:25;;;;;;;23.62;18.35;;;26.00;60.50;;;;;;1936344;73;21140;-71
2023/01/22 04:16:58;;;;;;;28.00;19.85;;;26.10;60.20;;;;;;1920928;72;21637;-71
2023/01/22 04:19:29;;;;;;;25.85;19.12;;;26.30;59.90;;;;;;1883539;75;21171;-71
2023/01/22 04:22:00;;;;;;;21.95;17.32;;;26.40;59.60;;;;;;1924617;74;21167;-70
2023/01/22 04:24:31;;;;;;;21.48;16.40;;;26.40;58.70;;;;;;1887514;75;21140;-71
2023/01/22 04:27:02;;;;;;;21.70;15.93;;;26.60;58.70;;;;;;1918470;74;21185;-71
2023/01/22 04:29:33;;;;;;;21.70;16.50;;;26.70;58.70;;;;;;1879545;75;21136;-72
2023/01/22 04:32:04;;;;;;;25.15;16.12;;;26.80;57.70;;;;;;1934360;74;21154;-72
2023/01/22 04:34:35;;;;;;;22.75;16.10;;;26.90;57.60;;;;;;1880874;75;21142;-71
2023/01/22 04:37:06;;;;;;;22.48;16.50;;;27.00;57.80;;;;;;1922108;74;21080;-71
2023/01/22 04:39:37;;;;;;;22.85;15.88;;;27.00;56.50;;;;;;1894182;74;21232;-71
2023/01/22 04:42:09;;;;;;;21.65;16.57;;;27.00;56.80;;;;;;1931321;73;21651;-71
2023/01/22 04:44:40;;;;;;;23.40;17.23;;;27.10;56.10;;;;;;1930694;73;21680;-72
2023/01/22 04:47:11;;;;;;;25.97;18.92;;;27.20;56.70;;;;;;1930660;72;21174;-70
2023/01/22 04:49:42;;;;;;;27.58;17.52;;;27.30;57.70;;;;;;1926894;73;21586;-70
2023/01/22 04:52:13;;;;;;;25.25;17.55;;;27.40;56.70;;;;;;1939340;73;21115;-72
2023/01/22 04:54:44;;;;;;;26.50;19.20;;;27.40;56.60;;;;;;1945456;73;21080;-72
2023/01/22 04:57:16;;;;;;;22.80;17.95;;;27.50;56.80;;;;;;1893839;75;21108;-73
2023/01/22 04:59:47;;;;;;;34.27;22.10;;;27.60;57.00;;;;;;1930769;72;21142;-72
2023/01/22 05:02:21;;;;;;;24.90;18.52;;;27.70;57.30;;;;;;1943296;72;21115;-71
2023/01/22 05:04:52;;;;;;;28.83;18.02;;;27.80;56.50;;;;;;1938051;72;21154;-72
2023/01/22 05:07:23;;;;;;;25.50;19.25;;;27.90;56.00;;;;;;1899138;75;21661;-71
2023/01/22 05:09:54;;;;;;;30.00;22.15;;;28.00;55.70;;;;;;1928650;73;21528;-71
2023/01/22 05:12:32;;;;;;;31.95;20.52;;;28.10;55.90;;;;;;1933566;73;21918;-72
2023/01/22 05:15:05;;;;;;;28.17;19.60;;;28.20;56.00;;;;;;1935050;73;21176;-71
2023/01/22 05:17:37;;;;;;;27.65;18.57;;;28.30;56.10;;;;;;1935612;72;21079;-71
2023/01/22 05:20:09;;;;;;;26.75;19.10;;;28.40;54.60;;;;;;1904236;75;21210;-72
2023/01/22 05:22:40;;;;;;;28.60;20.90;;;28.40;54.30;;;;;;1922193;73;21063;-73
2023/01/22 05:25:11;;;;;;;26.33;19.27;;;28.50;53.80;;;;;;1941170;73;21186;-73
2023/01/22 05:27:42;;;;;;;24.95;19.15;;;28.60;53.60;;;;;;1892183;75;21156;-72
2023/01/22 05:30:14;;;;;;;24.57;18.52;;;28.60;53.00;;;;;;1940381;73;21064;-73
2023/01/22 05:32:46;;;;;;;24.05;19.57;;;28.60;53.20;;;;;;1929387;73;21183;-71
2023/01/22 05:35:17;;;;;;;28.32;18.85;;;28.60;53.70;;;;;;1896933;75;21607;-72
2023/01/22 05:37:47;;;;;;;26.12;18.45;;;28.70;53.10;;;;;;1865225;76;21084;-72
2023/01/22 05:40:19;;;;;;;23.22;18.70;;;28.70;53.40;;;;;;1910586;73;21135;-72
2023/01/22 05:42:50;;;;;;;30.62;20.40;;;28.80;53.80;;;;;;1929702;72;21068;-72
2023/01/22 05:45:21;;;;;;;23.92;17.32;;;28.90;53.80;;;;;;1935049;73;21582;-73
2023/01/22 05:47:55;;;;;;;28.10;16.10;;;28.90;53.30;;;;;;1894713;74;21120;-72
2023/01/22 05:50:27;;;;;;;24.85;17.57;;;28.90;51.60;;;;;;1941168;73;21147;-70
2023/01/22 05:52:58;;;;;;;26.23;15.93;;;29.00;52.40;;;;;;1938960;72;22056;-72
2023/01/22 05:55:29;;;;;;;19.73;16.17;;;29.10;52.50;;;;;;1905949;75;21065;-71
2023/01/22 05:58:00;;;;;;;22.87;15.75;;;29.10;51.90;;;;;;1927247;73;21173;-72
2023/01/22 06:00:32;;;;;;;27.62;16.95;;;29.20;51.10;;;;;;1887838;74;21242;-72
2023/01/22 06:03:03;;;;;;;24.07;15.48;;;29.20;51.70;;;;;;1932820;73;21109;-73
2023/01/22 06:05:35;;;;;;;23.27;16.10;;;29.20;51.80;;;;;;1884445;75;21151;-72
2023/01/22 06:08:06;;;;;;;22.48;16.93;;;29.20;51.70;;;;;;1950339;73;21819;-71
2023/01/22 06:10:37;;;;;;;20.45;14.58;;;29.20;51.10;;;;;;1938159;73;21142;-71
2023/01/22 06:13:08;;;;;;;23.22;16.20;;;29.30;52.00;;;;;;1898088;75;21199;-72
2023/01/22 06:15:40;;;;;;;17.05;12.50;;;29.30;50.90;;;;;;1937782;73;21131;-71
2023/01/22 06:18:11;;;;;;;20.82;12.10;;;29.40;49.80;;;;;;1940324;73;21082;-74
2023/01/22 06:20:42;;;;;;;13.62;11.03;;;29.40;47.70;;;;;;1933920;72;21177;-72
2023/01/22 06:23:13;;;;;;;15.78;11.30;;;29.50;47.80;;;;;;1936077;72;21650;-72
2023/01/22 06:25:46;;;;;;;17.17;12.90;;;29.60;47.20;;;;;;1896592;75;21562;-72
2023/01/22 06:28:17;;;;;;;19.02;12.03;;;29.70;47.30;;;;;;1884521;75;21178;-72
2023/01/22 06:30:49;;;;;;;17.40;11.93;;;29.70;45.60;;;;;;1923573;73;21147;-72
2023/01/22 06:36:08;;;;;;;15.00;10.70;;;29.90;46.10;;;;;;1969973;73;21594;-72
2023/01/22 06:38:39;;;;;;;13.32;10.78;;;29.90;45.20;;;;;;2025703;69;21139;-73
2023/01/22 06:41:10;;;;;;;14.43;10.80;;;29.90;45.00;;;;;;2027404;70;21076;-73
2023/01/22 06:43:41;;;;;;;14.00;10.08;;;29.90;45.50;;;;;;1989036;71;21039;-73
2023/01/22 06:46:13;;;;;;;13.15;10.28;;;30.00;45.90;;;;;;2008483;70;21043;-73
2023/01/22 06:48:45;;;;;;;16.48;11.43;;;30.00;44.30;;;;;;2001008;70;21060;-69
2023/01/22 06:51:17;;;;;;;17.77;12.20;;;30.10;45.00;;;;;;2001057;71;21118;-70
2023/01/22 06:53:48;;;;;;;16.77;9.73;;;30.10;44.90;;;;;;2010185;70;21060;-70
2023/01/22 06:56:20;;;;;;;12.45;9.73;;;30.10;42.60;;;;;;1950344;72;21555;-71
2023/01/22 06:58:51;;;;;;;13.93;9.28;;;30.10;41.00;;;;;;1970615;71;21064;-71
2023/01/22 07:01:22;;;;;;;12.70;10.03;;;30.10;41.50;;;;;;1995343;70;21063;-70
2023/01/22 07:03:54;;;;;;;17.27;11.20;;;30.20;44.00;;;;;;1969226;72;21877;-92
2023/01/22 07:06:25;;;;;;;13.22;10.58;;;30.20;44.40;;;;;;1970938;71;21104;-91
2023/01/22 07:09:00;;;;;;;15.83;10.60;;;30.20;44.30;;;;;;1970102;71;21047;-92
2023/01/22 07:11:49;;;;;;;12.03;9.38;;;30.20;44.30;;;;;;2003056;70;21127;-90
2023/01/22 07:14:20;;;;;;;11.95;10.03;;;30.20;44.50;;;;;;1966344;72;21071;-91
2023/01/22 07:16:52;;;;;;;11.18;8.93;;;30.20;44.10;;;;;;2000106;70;21129;-89
2023/01/22 07:19:23;;;;;;;12.68;9.55;;;30.10;42.50;;;;;;1967068;72;21622;-89
2023/01/22 07:21:59;;;;;;;32.93;25.80;;;30.20;41.10;;;;;;1996675;70;21713;-91
2023/01/22 07:24:33;;;;;;;13.70;11.38;;;30.30;43.50;;;;;;2006326;70;21125;-90
2023/01/22 07:27:06;;;;;;;14.87;9.85;;;30.20;43.20;;;;;;1965995;72;21099;-89
2023/01/22 07:29:37;;;;;;;13.53;10.03;;;30.20;42.80;;;;;;2007454;70;21727;-92
2023/01/22 07:32:08;;;;;;;13.98;9.53;;;30.30;43.20;;;;;;2003680;70;21136;-88
2023/01/22 07:34:39;;;;;;;11.05;9.33;;;30.30;42.90;;;;;;2002103;70;21096;-89
2023/01/22 07:37:10;;;;;;;11.38;8.65;;;30.30;42.60;;;;;;1946451;72;21179;-89
2023/01/22 07:39:41;;;;;;;10.98;8.88;;;30.30;41.70;;;;;;1995363;70;21099;-87
2023/01/22 07:42:18;;;;;;;13.05;9.03;;;30.30;40.90;;;;;;1996678;70;21102;-91
2023/01/22 07:44:49;;;;;;;15.70;9.73;;;30.30;41.70;;;;;;1964964;72;21041;-93
2023/01/22 07:47:21;;;;;;;12.30;10.05;;;30.30;42.40;;;;;;1992140;70;21066;-91
2023/01/22 07:49:52;;;;;;;15.13;10.18;;;30.20;43.40;;;;;;1969069;72;21224;-91
2023/01/22 07:52:23;;;;;;;13.58;10.58;;;30.20;42.90;;;;;;1972578;71;21033;-88
2023/01/22 07:54:53;;;;;;;13.15;10.48;;;30.20;43.40;;;;;;1946010;71;21116;-91
2023/01/22 07:57:24;;;;;;;12.75;10.13;;;30.20;43.20;;;;;;1980833;71;21089;-91
2023/01/22 07:59:56;;;;;;;14.63;9.80;;;30.20;42.50;;;;;;2030873;70;21103;-91
2023/01/22 08:02:27;;;;;;;13.03;9.23;;;30.10;43.40;;;;;;1957482;72;21153;-92
2023/01/22 08:04:58;;;;;;;11.22;9.00;;;30.10;42.40;;;;;;1996011;70;21064;-89
2023/01/22 08:07:29;;;;;;;13.72;9.65;;;30.00;41.20;;;;;;1999587;70;21067;-90
2023/01/22 08:10:00;;;;;;;19.07;10.78;;;30.00;42.30;;;;;;1993387;70;22281;-88
2023/01/22 08:12:31;;;;;;;14.90;10.10;;;29.90;42.80;;;;;;1959393;71;21642;-89
2023/01/22 08:15:01;;;;;;;11.95;10.63;;;29.90;43.60;;;;;;1974142;71;21169;-87
2023/01/22 08:17:33;;;;;;;14.35;11.28;;;29.90;43.40;;;;;;1961220;71;21115;-88
2023/01/22 08:20:08;;;;;;;12.80;10.50;;;29.90;42.30;;;;;;1979486;70;21107;-90
2023/01/22 08:22:39;;;;;;;22.35;11.08;;;29.90;42.30;;;;;;2020814;70;21128;-89
2023/01/22 08:25:10;;;;;;;13.55;10.28;;;29.90;42.50;;;;;;2000779;70;21143;-91
2023/01/22 08:27:42;;;;;;;14.98;10.38;;;29.80;42.20;;;;;;1986805;70;21860;-89
2023/01/22 08:30:15;;;;;;;14.25;10.98;;;29.80;42.80;;;;;;1990900;70;21100;-89
2023/01/22 08:32:46;;;;;;;13.20;10.98;;;29.80;43.30;;;;;;1991196;70;21137;-90
2023/01/22 08:35:17;;;;;;;16.87;11.50;;;29.70;44.00;;;;;;1984603;70;21589;-89
2023/01/22 08:37:49;;;;;;;16.90;11.83;;;29.70;43.80;;;;;;2003745;70;21021;-91
2023/01/22 08:40:22;;;;;;;15.28;11.70;;;29.70;43.50;;;;;;2017558;70;21012;-90
2023/01/22 08:42:55;;;;;;;16.12;12.33;;;29.70;44.40;;;;;;2016651;70;21089;-88
2023/01/22 08:45:28;;;;;;;18.77;11.48;;;29.70;43.90;;;;;;2026920;70;21001;-89
2023/01/22 08:48:09;;;;;;;16.67;12.78;;;29.70;44.40;;;;;;2015729;70;21137;-90
2023/01/22 08:50:41;;;;;;;19.37;12.43;;;29.70;44.30;;;;;;2012957;70;21511;-90
2023/01/22 08:53:15;;;;;;;16.73;12.43;;;29.70;45.10;;;;;;2022371;70;21150;-90
2023/01/22 08:55:49;;;;;;;14.58;11.45;;;29.70;44.80;;;;;;2006234;70;21125;-90
2023/01/22 08:58:21;;;;;;;18.17;12.98;;;29.70;44.50;;;;;;1963619;71;21062;-90
2023/01/22 09:00:53;;;;;;;15.68;13.13;;;29.70;45.00;;;;;;2003627;70;21119;-92
2023/01/22 09:03:24;;;;;;;17.27;13.53;;;29.60;44.90;;;;;;2003371;70;21480;-92
2023/01/22 09:05:56;;;;;;;18.57;12.98;;;29.60;44.70;;;;;;2009425;70;21113;-89
2023/01/22 09:08:27;;;;;;;19.87;14.18;;;29.60;44.40;;;;;;2010400;70;21657;-90
2023/01/22 09:10:58;;;;;;;17.90;13.65;;;29.60;44.80;;;;;;1965531;71;21059;-89
2023/01/22 09:13:29;;;;;;;16.07;13.18;;;29.60;45.70;;;;;;2033018;70;21147;-91
2023/01/22 09:16:00;;;;;;;16.97;13.32;;;29.60;45.30;;;;;;2023926;70;21131;-89
2023/01/22 09:18:31;;;;;;;19.27;13.25;;;29.50;44.80;;;;;;2005009;70;21143;-90
2023/01/22 09:21:03;;;;;;;17.55;13.65;;;29.50;45.40;;;;;;1976938;71;22480;-90
2023/01/22 09:23:34;;;;;;;19.45;13.13;;;29.50;45.70;;;;;;2007069;70;21129;-91
2023/01/22 09:26:04;;;;;;;17.05;13.50;;;29.50;45.80;;;;;;1974747;70;21131;-89
2023/01/22 09:28:35;;;;;;;24.20;14.80;;;29.40;45.90;;;;;;2007163;70;21036;-89
2023/01/22 09:31:06;;;;;;;16.10;13.60;;;29.40;46.20;;;;;;2013049;70;21111;-90
2023/01/22 09:33:37;;;;;;;21.68;14.87;;;29.40;46.60;;;;;;2004091;70;21137;-90
2023/01/22 09:36:11;;;;;;;21.33;15.35;;;29.30;46.60;;;;;;2003995;70;21068;-90
2023/01/22 09:39:02;;;;;;;21.68;15.70;;;29.40;46.80;;;;;;1996044;70;21041;-89
2023/01/22 09:41:41;;;;;;;24.30;17.50;;;29.40;46.30;;;;;;1940599;70;21162;-89
2023/01/22 09:44:15;;;;;;;21.95;18.17;;;29.30;46.40;;;;;;2006277;70;21154;-88
2023/01/22 09:46:51;;;;;;;22.32;15.13;;;29.30;46.90;;;;;;1991324;70;21143;-90
2023/01/22 09:49:25;;;;;;;22.42;14.83;;;29.20;47.20;;;;;;2019392;71;21515;-89
2023/01/22 09:52:03;;;;;;;23.95;15.50;;;29.10;46.50;;;;;;2021390;70;21528;-88
2023/01/22 09:54:40;;;;;;;16.90;13.78;;;29.10;46.70;;;;;;1990501;71;21021;-88
2023/01/22 09:57:14;;;;;;;17.95;13.70;;;29.00;46.10;;;;;;2013708;70;21033;-89
2023/01/22 09:59:48;;;;;;;;;;;28.90;46.20;;;;;;2013100;70;21221;-89
2023/01/22 10:02:27;;;;;;;20.70;13.95;;;28.90;47.50;;;;;;2015085;70;20124;-88
2023/01/22 10:05:16;;;;;;;21.02;13.08;;;28.80;46.50;;;;;;2021356;70;21637;-87
2023/01/22 10:07:55;;;;;;;20.43;13.60;;;28.70;46.60;;;;;;2018286;70;21140;-86
2023/01/22 10:10:27;;;;;;;15.98;12.88;;;28.70;46.50;;;;;;2019565;70;21202;-87
2023/01/22 10:13:16;;;;;;;16.62;12.90;;;28.60;46.30;;;;;;1992289;70;21257;-87
2023/01/22 10:15:48;;;;;;;20.05;13.30;;;28.60;46.40;;;;;;1998549;70;21142;-87
2023/01/22 10:18:24;;;;;;;17.48;13.32;;;28.50;46.40;;;;;;1955025;72;21115;-88
2023/01/22 10:20:56;;;;;;;19.10;14.78;;;28.50;46.60;;;;;;2012529;70;21128;-88
2023/01/22 10:23:28;;;;;;;20.30;15.85;;;28.40;47.20;;;;;;2015704;70;21056;-88
2023/01/22 10:26:07;;;;;;;30.27;20.75;;;28.40;48.80;;;;;;2022278;70;21107;-86
2023/01/22 10:28:38;;;;;;;32.50;21.00;;;28.30;48.40;;;;;;2002645;70;21073;-88
2023/01/22 10:31:23;;;;;;;29.20;20.27;;;28.20;48.50;;;;;;1997684;70;21115;-87
2023/01/22 10:33:59;;;;;;;26.82;17.82;;;28.20;48.90;;;;;;1959434;71;21660;-87
2023/01/22 10:36:31;;;;;;;25.92;18.95;;;28.10;48.60;;;;;;1984575;70;21238;-88
2023/01/22 10:39:13;;;;;;;32.38;23.52;;;28.00;48.70;;;;;;1944574;72;21181;-87
2023/01/22 10:41:46;;;;;;;28.95;19.17;;;28.00;49.90;;;;;;1949284;72;21752;-90
2023/01/22 10:44:25;;;;;;;34.80;23.90;;;27.90;49.60;;;;;;1962422;71;21072;-89
2023/01/22 10:46:58;;;;;;;24.40;18.92;;;27.90;50.70;;;;;;1961984;71;21107;-89
2023/01/22 10:49:29;;;;;;;31.48;20.90;;;27.80;50.30;;;;;;1969159;71;21572;-89
2023/01/22 10:52:01;;;;;;;27.85;20.68;;;27.70;50.70;;;;;;2008000;70;21116;-87
2023/01/22 10:54:35;;;;;;;21.70;16.52;;;27.60;51.20;;;;;;2004631;70;21087;-88
2023/01/22 10:57:08;;;;;;;24.32;16.90;;;27.60;51.30;;;;;;2008322;70;21057;-88
2023/01/22 10:59:39;;;;;;;22.02;15.58;;;27.50;51.20;;;;;;1966998;71;21168;-86
2023/01/22 11:02:15;;;;;;;24.95;16.45;;;27.50;51.40;;;;;;1967202;71;21053;-88
2023/01/22 11:04:46;;;;;;;23.40;17.45;;;27.40;51.40;;;;;;1985768;71;21931;-88
2023/01/22 11:07:28;;;;;;;28.92;19.02;;;27.30;51.50;;;;;;1981350;71;21048;-87
2023/01/22 11:10:24;;;;;;;28.70;17.60;;;27.30;51.70;;;;;;1923433;72;21200;-87
2023/01/22 11:13:18;;;;;;;22.17;16.73;;;27.20;51.70;;;;;;2012894;71;21579;-88
2023/01/22 11:15:54;;;;;;;25.08;16.40;;;27.20;52.30;;;;;;1990000;70;21057;-87
2023/01/22 11:18:40;;;;;;;22.35;16.17;;;27.10;52.60;;;;;;2015901;70;21046;-90
2023/01/22 11:21:19;;;;;;;34.90;18.33;;;27.10;52.90;;;;;;2020268;70;21034;-91
2023/01/22 11:24:05;;;;;;;24.55;16.25;;;27.00;53.00;;;;;;2014173;70;21161;-88
2023/01/22 11:26:59;;;;;;;30.52;18.95;;;27.10;56.90;;;;;;1964396;71;21119;-88
2023/01/22 11:29:38;;;;;;;31.20;18.80;;;27.00;54.50;;;;;;1975561;71;21087;-88
2023/01/22 11:32:34;;;;;;;29.70;18.90;;;26.80;66.90;;;;;;1980389;71;21071;-89
2023/01/22 11:35:13;;;;;;;39.25;21.90;;;26.90;54.30;;;;;;1962509;73;21061;-87
2023/01/22 11:37:51;;;;;;;50.43;19.23;;;;;;;;;;1970090;71;21085;-89
2023/01/22 11:40:37;;;;;;;42.83;17.90;;;26.80;53.80;;;;;;1961811;71;21660;-88
2023/01/22 11:43:19;;;;;;;29.25;20.62;;;26.80;54.40;;;;;;1984209;71;21045;-88
2023/01/22 11:46:11;;;;;;;37.63;19.75;;;26.70;54.80;;;;;;1971446;71;21069;-88
2023/01/22 11:48:49;;;;;;;34.85;21.73;;;26.70;54.80;;;;;;1978432;71;21135;-87
2023/01/22 11:54:07;;;;;;;32.58;22.30;;;;;;;;;;1851745;75;21088;-91
2023/01/22 11:56:57;;;;;;;59.98;34.00;;;26.40;54.20;;;;;;1824622;76;21120;-91
2023/01/22 11:59:48;;;;;;;53.55;32.78;;;26.40;56.00;;;;;;1831280;78;21580;-90
2023/01/22 12:02:43;;;;;;;50.23;30.40;;;26.30;56.80;;;;;;1826795;76;21218;-88
2023/01/22 12:05:23;;;;;;;48.55;28.95;;;26.30;56.70;;;;;;1831752;77;21068;-89
2023/01/22 12:08:11;;;;;;;52.23;29.27;;;26.30;56.90;;;;;;1853621;76;21075;-89
2023/01/22 12:10:48;;;;;;;48.95;28.83;;;26.30;56.90;;;;;;1873691;75;21557;-87
2023/01/22 12:13:39;;;;;;;52.33;31.12;;;26.20;56.90;;;;;;1862730;75;21079;-88
2023/01/22 12:16:15;;;;;;;47.75;29.65;;;26.20;57.30;;;;;;1860849;75;21073;-89
2023/01/22 12:18:58;;;;;;;45.90;29.48;;;26.20;57.50;;;;;;1854680;75;21136;-90
2023/01/22 12:21:37;;;;;;;52.75;27.52;;;26.10;57.40;;;;;;1865559;75;21124;-91
2023/01/22 12:24:22;;;;;;;44.13;25.68;;;26.10;57.40;;;;;;1843519;76;21526;-92
2023/01/22 12:27:08;;;;;;;40.10;24.05;;;26.10;57.10;;;;;;1833392;76;21115;-90
2023/01/22 12:29:51;;;;;;;46.85;26.00;;;26.00;57.00;;;;;;1838683;77;21105;-91
2023/01/22 12:32:24;;;;;;;44.53;25.43;;;26.00;57.60;;;;;;1857181;75;21141;-91
2023/01/22 12:35:04;;;;;;;40.30;24.40;;;25.90;57.50;;;;;;1850026;75;21192;-90
2023/01/22 12:37:49;;;;;;;39.92;24.40;;;25.90;57.20;;;;;;1861882;76;21199;-91
2023/01/22 12:40:50;;;;;;;41.65;24.25;;;25.90;57.20;;;;;;1865268;75;21197;-90
2023/01/22 12:43:23;;;;;;;37.15;24.05;;;25.90;57.30;;;;;;1862705;75;21081;-90
2023/01/22 12:46:01;;;;;;;41.50;24.50;;;25.90;57.30;;;;;;1856865;74;21122;-89
2023/01/22 12:48:52;;;;;;;41.85;25.37;;;25.90;57.50;;;;;;1884041;72;21684;-91
2023/01/22 12:51:42;;;;;;;42.43;24.77;;;25.90;57.70;;;;;;1894282;74;21124;-88
2023/01/22 12:54:28;;;;;;;40.12;22.77;;;25.90;57.80;;;;;;1897859;74;21136;-93
2023/01/22 12:57:22;;;;;;;40.10;23.75;;;25.90;57.40;;;;;;1894142;74;21055;-91
2023/01/22 13:00:18;;;;;;;;;;;;;;;;;;;;;
2023/01/22 13:02:44;;;;;;;41.15;23.40;;;25.80;58.00;;;;;;1878469;74;21593;-90
2023/01/22 13:05:28;;;;;;;38.40;22.80;;;25.70;58.30;;;;;;1886345;74;21174;-89
2023/01/22 13:08:28;;;;;;;40.92;22.55;;;25.60;58.10;;;;;;1897173;73;21135;-90
2023/01/22 13:11:03;;;;;;;33.08;21.70;;;25.60;57.90;;;;;;1879352;75;21140;-92
2023/01/22 13:13:36;;;;;;;42.88;22.73;;;25.60;57.90;;;;;;1889929;76;21132;-90
2023/01/22 13:16:19;;;;;;;41.23;23.57;;;25.50;58.20;;;;;;1849675;76;21233;-90
2023/01/22 13:18:55;;;;;;;35.60;22.52;;;25.50;58.30;;;;;;1914867;74;21092;-90
2023/01/22 13:21:30;;;;;;;41.05;24.40;;;25.50;58.50;;;;;;1906731;74;21155;-90
2023/01/22 13:24:04;;;;;;;37.80;23.83;;;25.40;58.70;;;;;;1904889;74;21067;-92